sensor_id;sensor_type;location;lat;lon;timestamp;temperature;humidity
6518;DHT22;3292;48.944;9.240;2023-04-03T00:00:22;4.30;99.90
6518;DHT22;3292;48.944;9.240;2023-04-03T00:02:49;4.30;99.90
6518;DHT22;3292;48.944;9.240;2023-04-03T00:05:16;4.30;99.90
6518;DHT22;3292;48.944;9.240;2023-04-03T00:07:43;4.20;99.90
6518;DHT22;3292;48.944;9.240;2023-04-03T00:10:10;4.30;99.90
6518;DHT22;3292;48.944;9.240;2023-04-03T00:12:38;4.20;99.90
6518;DHT22;3292;48.944;9.240;2023-04-03T00:15:06;4.20;99.90
6518;DHT22;3292;48.944;9.240;2023-04-03T00:17:34;4.30;99.90
6518;DHT22;3292;48.944;9.240;2023-04-03T00:20:01;4.30;99.90
6518;DHT22;3292;48.944;9.240;2023-04-03T00:22:28;4.30;99.90
6518;DHT22;3292;48.944;9.240;2023-04-03T00:24:55;4.20;99.90
6518;DHT22;3292;48.944;9.240;2023-04-03T00:27:22;4.20;99.90
6518;DHT22;3292;48.944;9.240;2023-04-03T00:29:50;4.20;99.90
6518;DHT22;3292;48.944;9.240;2023-04-03T00:32:17;4.10;99.90
6518;DHT22;3292;48.944;9.240;2023-04-03T00:34:44;4.10;99.90
6518;DHT22;3292;48.944;9.240;2023-04-03T00:37:10;4.10;99.90
6518;DHT22;3292;48.944;9.240;2023-04-03T00:39:37;4.10;99.90
6518;DHT22;3292;48.944;9.240;2023-04-03T00:42:04;4.20;99.90
6518;DHT22;3292;48.944;9.240;2023-04-03T00:47:37;4.20;99.90
6518;DHT22;3292;48.944;9.240;2023-04-03T00:50:06;4.20;99.90
6518;DHT22;3292;48.944;9.240;2023-04-03T00:52:32;4.20;99.90
6518;DHT22;3292;48.944;9.240;2023-04-03T00:55:02;4.20;99.90
6518;DHT22;3292;48.944;9.240;2023-04-03T00:57:31;4.20;99.90
6518;DHT22;3292;48.944;9.240;2023-04-03T01:00:01;4.10;99.90
6518;DHT22;3292;48.944;9.240;2023-04-03T01:02:31;4.20;99.90
6518;DHT22;3292;48.944;9.240;2023-04-03T01:04:59;4.10;99.90
6518;DHT22;3292;48.944;9.240;2023-04-03T01:07:29;4.10;99.90
6518;DHT22;3292;48.944;9.240;2023-04-03T01:10:01;4.00;99.90
6518;DHT22;3292;48.944;9.240;2023-04-03T01:12:30;4.00;99.90
6518;DHT22;3292;48.944;9.240;2023-04-03T01:15:00;4.00;99.90
6518;DHT22;3292;48.944;9.240;2023-04-03T01:17:30;4.00;99.90
6518;DHT22;3292;48.944;9.240;2023-04-03T01:20:22;4.00;99.90
6518;DHT22;3292;48.944;9.240;2023-04-03T01:22:56;3.90;99.90
6518;DHT22;3292;48.944;9.240;2023-04-03T01:25:25;3.90;99.90
6518;DHT22;3292;48.944;9.240;2023-04-03T01:27:52;3.90;99.90
6518;DHT22;3292;48.944;9.240;2023-04-03T01:30:21;3.90;99.90
6518;DHT22;3292;48.944;9.240;2023-04-03T01:32:51;3.90;99.90
6518;DHT22;3292;48.944;9.240;2023-04-03T01:35:18;3.80;99.90
6518;DHT22;3292;48.944;9.240;2023-04-03T01:37:45;3.80;99.90
6518;DHT22;3292;48.944;9.240;2023-04-03T01:40:12;3.90;99.90
6518;DHT22;3292;48.944;9.240;2023-04-03T01:42:39;3.90;99.90
6518;DHT22;3292;48.944;9.240;2023-04-03T01:45:06;3.90;99.90
6518;DHT22;3292;48.944;9.240;2023-04-03T01:47:33;3.90;99.90
6518;DHT22;3292;48.944;9.240;2023-04-03T01:50:01;3.80;99.90
6518;DHT22;3292;48.944;9.240;2023-04-03T01:52:28;3.80;99.90
6518;DHT22;3292;48.944;9.240;2023-04-03T01:54:55;3.80;99.90
6518;DHT22;3292;48.944;9.240;2023-04-03T01:57:22;3.80;99.90
6518;DHT22;3292;48.944;9.240;2023-04-03T01:59:49;3.80;99.90
6518;DHT22;3292;48.944;9.240;2023-04-03T02:02:16;3.80;99.90
6518;DHT22;3292;48.944;9.240;2023-04-03T02:04:44;3.80;99.90
6518;DHT22;3292;48.944;9.240;2023-04-03T02:07:14;3.80;99.90
6518;DHT22;3292;48.944;9.240;2023-04-03T02:09:41;3.80;99.90
6518;DHT22;3292;48.944;9.240;2023-04-03T02:12:07;3.70;99.90
6518;DHT22;3292;48.944;9.240;2023-04-03T02:14:34;3.70;99.90
6518;DHT22;3292;48.944;9.240;2023-04-03T02:17:01;3.70;99.90
6518;DHT22;3292;48.944;9.240;2023-04-03T02:19:30;3.70;99.90
6518;DHT22;3292;48.944;9.240;2023-04-03T02:21:57;3.70;99.90
6518;DHT22;3292;48.944;9.240;2023-04-03T02:24:25;3.70;99.90
6518;DHT22;3292;48.944;9.240;2023-04-03T02:26:53;3.80;99.90
6518;DHT22;3292;48.944;9.240;2023-04-03T02:29:19;3.70;99.90
6518;DHT22;3292;48.944;9.240;2023-04-03T02:31:46;3.70;99.90
6518;DHT22;3292;48.944;9.240;2023-04-03T02:34:13;3.70;99.90
6518;DHT22;3292;48.944;9.240;2023-04-03T02:36:40;3.80;99.90
6518;DHT22;3292;48.944;9.240;2023-04-03T02:39:07;3.80;99.90
6518;DHT22;3292;48.944;9.240;2023-04-03T02:41:35;3.80;99.90
6518;DHT22;3292;48.944;9.240;2023-04-03T02:44:03;3.80;99.90
6518;DHT22;3292;48.944;9.240;2023-04-03T02:46:29;3.90;99.90
6518;DHT22;3292;48.944;9.240;2023-04-03T02:48:56;3.90;99.90
6518;DHT22;3292;48.944;9.240;2023-04-03T02:51:23;3.90;99.90
6518;DHT22;3292;48.944;9.240;2023-04-03T02:53:50;3.90;99.90
6518;DHT22;3292;48.944;9.240;2023-04-03T02:56:18;3.90;99.90
6518;DHT22;3292;48.944;9.240;2023-04-03T02:58:47;3.90;99.90
6518;DHT22;3292;48.944;9.240;2023-04-03T03:01:14;3.90;99.90
6518;DHT22;3292;48.944;9.240;2023-04-03T03:03:41;4.00;99.90
6518;DHT22;3292;48.944;9.240;2023-04-03T03:06:10;4.00;99.90
6518;DHT22;3292;48.944;9.240;2023-04-03T03:08:38;4.00;99.90
6518;DHT22;3292;48.944;9.240;2023-04-03T03:11:05;4.10;99.90
6518;DHT22;3292;48.944;9.240;2023-04-03T03:13:33;4.10;99.90
6518;DHT22;3292;48.944;9.240;2023-04-03T03:16:01;4.00;99.90
6518;DHT22;3292;48.944;9.240;2023-04-03T03:18:29;4.00;99.90
6518;DHT22;3292;48.944;9.240;2023-04-03T03:20:58;4.00;99.90
6518;DHT22;3292;48.944;9.240;2023-04-03T03:23:26;4.10;99.90
6518;DHT22;3292;48.944;9.240;2023-04-03T03:25:54;4.10;99.90
6518;DHT22;3292;48.944;9.240;2023-04-03T03:28:21;4.00;99.90
6518;DHT22;3292;48.944;9.240;2023-04-03T03:30:48;4.00;99.90
6518;DHT22;3292;48.944;9.240;2023-04-03T03:33:16;4.00;99.90
6518;DHT22;3292;48.944;9.240;2023-04-03T03:35:43;4.00;99.90
6518;DHT22;3292;48.944;9.240;2023-04-03T03:38:10;4.00;99.90
6518;DHT22;3292;48.944;9.240;2023-04-03T03:40:37;4.00;99.90
6518;DHT22;3292;48.944;9.240;2023-04-03T03:43:04;4.10;99.90
6518;DHT22;3292;48.944;9.240;2023-04-03T03:45:32;4.10;99.90
6518;DHT22;3292;48.944;9.240;2023-04-03T03:47:58;4.10;99.90
6518;DHT22;3292;48.944;9.240;2023-04-03T03:50:27;4.00;99.90
6518;DHT22;3292;48.944;9.240;2023-04-03T03:52:53;4.00;99.90
6518;DHT22;3292;48.944;9.240;2023-04-03T03:55:20;4.00;99.90
6518;DHT22;3292;48.944;9.240;2023-04-03T03:57:47;4.00;99.90
6518;DHT22;3292;48.944;9.240;2023-04-03T04:00:14;4.00;99.90
6518;DHT22;3292;48.944;9.240;2023-04-03T04:02:42;4.00;99.90
6518;DHT22;3292;48.944;9.240;2023-04-03T04:05:09;4.00;99.90
6518;DHT22;3292;48.944;9.240;2023-04-03T04:07:37;4.00;99.90
6518;DHT22;3292;48.944;9.240;2023-04-03T04:10:05;4.00;99.90
6518;DHT22;3292;48.944;9.240;2023-04-03T04:12:31;4.00;99.90
6518;DHT22;3292;48.944;9.240;2023-04-03T04:14:58;4.00;99.90
6518;DHT22;3292;48.944;9.240;2023-04-03T04:17:25;4.00;99.90
6518;DHT22;3292;48.944;9.240;2023-04-03T04:19:52;4.00;99.90
6518;DHT22;3292;48.944;9.240;2023-04-03T04:22:18;4.00;99.90
6518;DHT22;3292;48.944;9.240;2023-04-03T04:24:47;3.90;99.90
6518;DHT22;3292;48.944;9.240;2023-04-03T04:27:13;3.90;99.90
6518;DHT22;3292;48.944;9.240;2023-04-03T04:29:41;3.90;99.90
6518;DHT22;3292;48.944;9.240;2023-04-03T04:32:07;3.90;99.90
6518;DHT22;3292;48.944;9.240;2023-04-03T04:34:34;3.80;99.90
6518;DHT22;3292;48.944;9.240;2023-04-03T04:37:01;3.80;99.90
6518;DHT22;3292;48.944;9.240;2023-04-03T04:39:28;3.80;99.90
6518;DHT22;3292;48.944;9.240;2023-04-03T04:41:56;3.80;99.90
6518;DHT22;3292;48.944;9.240;2023-04-03T04:44:23;3.80;99.90
6518;DHT22;3292;48.944;9.240;2023-04-03T04:46:50;3.70;99.90
6518;DHT22;3292;48.944;9.240;2023-04-03T04:49:16;3.70;99.90
6518;DHT22;3292;48.944;9.240;2023-04-03T04:51:43;3.70;99.90
6518;DHT22;3292;48.944;9.240;2023-04-03T04:54:10;3.80;99.90
6518;DHT22;3292;48.944;9.240;2023-04-03T04:56:37;3.80;99.90
6518;DHT22;3292;48.944;9.240;2023-04-03T04:59:05;3.70;99.90
6518;DHT22;3292;48.944;9.240;2023-04-03T05:01:32;3.70;99.90
6518;DHT22;3292;48.944;9.240;2023-04-03T05:03:58;3.70;99.90
6518;DHT22;3292;48.944;9.240;2023-04-03T05:06:25;3.70;99.90
6518;DHT22;3292;48.944;9.240;2023-04-03T05:08:52;3.70;99.90
6518;DHT22;3292;48.944;9.240;2023-04-03T05:11:19;3.60;99.90
6518;DHT22;3292;48.944;9.240;2023-04-03T05:13:46;3.60;99.90
6518;DHT22;3292;48.944;9.240;2023-04-03T05:16:14;3.60;99.90
6518;DHT22;3292;48.944;9.240;2023-04-03T05:18:41;3.60;99.90
6518;DHT22;3292;48.944;9.240;2023-04-03T05:21:07;3.60;99.90
6518;DHT22;3292;48.944;9.240;2023-04-03T05:23:34;3.60;99.90
6518;DHT22;3292;48.944;9.240;2023-04-03T05:26:01;3.60;99.90
6518;DHT22;3292;48.944;9.240;2023-04-03T05:28:28;3.60;99.90
6518;DHT22;3292;48.944;9.240;2023-04-03T05:30:56;3.60;99.90
6518;DHT22;3292;48.944;9.240;2023-04-03T05:33:25;3.50;99.90
6518;DHT22;3292;48.944;9.240;2023-04-03T05:35:52;3.50;99.90
6518;DHT22;3292;48.944;9.240;2023-04-03T05:38:19;3.60;99.90
6518;DHT22;3292;48.944;9.240;2023-04-03T05:40:46;3.60;99.90
6518;DHT22;3292;48.944;9.240;2023-04-03T05:43:13;3.60;99.90
6518;DHT22;3292;48.944;9.240;2023-04-03T05:45:40;3.60;99.90
6518;DHT22;3292;48.944;9.240;2023-04-03T05:48:07;3.60;99.90
6518;DHT22;3292;48.944;9.240;2023-04-03T05:50:35;3.70;99.90
6518;DHT22;3292;48.944;9.240;2023-04-03T05:53:07;3.70;99.90
6518;DHT22;3292;48.944;9.240;2023-04-03T05:55:40;3.60;99.90
6518;DHT22;3292;48.944;9.240;2023-04-03T05:58:07;3.60;99.90
6518;DHT22;3292;48.944;9.240;2023-04-03T06:00:34;3.60;99.90
6518;DHT22;3292;48.944;9.240;2023-04-03T06:03:01;3.70;99.90
6518;DHT22;3292;48.944;9.240;2023-04-03T06:05:28;3.60;99.90
6518;DHT22;3292;48.944;9.240;2023-04-03T06:07:56;3.60;99.90
6518;DHT22;3292;48.944;9.240;2023-04-03T06:10:23;3.60;99.90
6518;DHT22;3292;48.944;9.240;2023-04-03T06:12:50;3.70;99.90
6518;DHT22;3292;48.944;9.240;2023-04-03T06:15:17;3.80;99.90
6518;DHT22;3292;48.944;9.240;2023-04-03T06:17:44;3.80;99.90
6518;DHT22;3292;48.944;9.240;2023-04-03T06:20:12;4.00;99.90
6518;DHT22;3292;48.944;9.240;2023-04-03T06:22:38;4.10;99.90
6518;DHT22;3292;48.944;9.240;2023-04-03T06:25:09;4.20;99.90
6518;DHT22;3292;48.944;9.240;2023-04-03T06:27:36;4.20;99.90
6518;DHT22;3292;48.944;9.240;2023-04-03T06:30:04;4.20;99.90
6518;DHT22;3292;48.944;9.240;2023-04-03T06:32:31;4.20;99.90
6518;DHT22;3292;48.944;9.240;2023-04-03T06:34:58;4.30;99.90
6518;DHT22;3292;48.944;9.240;2023-04-03T06:37:25;4.30;99.90
6518;DHT22;3292;48.944;9.240;2023-04-03T06:39:54;4.30;99.90
6518;DHT22;3292;48.944;9.240;2023-04-03T06:42:23;4.30;99.90
6518;DHT22;3292;48.944;9.240;2023-04-03T06:44:50;4.40;99.90
6518;DHT22;3292;48.944;9.240;2023-04-03T06:47:17;4.20;99.90
6518;DHT22;3292;48.944;9.240;2023-04-03T06:49:44;4.20;99.90
6518;DHT22;3292;48.944;9.240;2023-04-03T06:52:11;4.30;99.90
6518;DHT22;3292;48.944;9.240;2023-04-03T06:54:38;4.40;99.90
6518;DHT22;3292;48.944;9.240;2023-04-03T06:57:06;4.40;99.90
6518;DHT22;3292;48.944;9.240;2023-04-03T06:59:34;4.50;99.90
6518;DHT22;3292;48.944;9.240;2023-04-03T07:02:01;4.50;99.90
6518;DHT22;3292;48.944;9.240;2023-04-03T07:04:28;4.60;99.90
6518;DHT22;3292;48.944;9.240;2023-04-03T07:06:56;4.70;99.90
6518;DHT22;3292;48.944;9.240;2023-04-03T07:09:23;4.90;99.90
6518;DHT22;3292;48.944;9.240;2023-04-03T07:11:50;5.10;99.90
6518;DHT22;3292;48.944;9.240;2023-04-03T07:14:16;5.20;99.90
6518;DHT22;3292;48.944;9.240;2023-04-03T07:16:45;5.20;99.90
6518;DHT22;3292;48.944;9.240;2023-04-03T07:19:11;5.30;99.90
6518;DHT22;3292;48.944;9.240;2023-04-03T07:21:38;5.70;99.90
6518;DHT22;3292;48.944;9.240;2023-04-03T07:24:07;6.40;99.90
6518;DHT22;3292;48.944;9.240;2023-04-03T07:26:34;6.60;99.90
6518;DHT22;3292;48.944;9.240;2023-04-03T07:29:01;6.60;99.90
6518;DHT22;3292;48.944;9.240;2023-04-03T07:31:27;6.50;99.90
6518;DHT22;3292;48.944;9.240;2023-04-03T07:33:56;6.40;99.90
6518;DHT22;3292;48.944;9.240;2023-04-03T07:36:23;6.30;99.90
6518;DHT22;3292;48.944;9.240;2023-04-03T07:38:50;6.30;99.90
6518;DHT22;3292;48.944;9.240;2023-04-03T07:41:18;6.40;99.90
6518;DHT22;3292;48.944;9.240;2023-04-03T07:43:46;6.50;99.90
6518;DHT22;3292;48.944;9.240;2023-04-03T07:46:15;6.60;99.90
6518;DHT22;3292;48.944;9.240;2023-04-03T07:48:43;6.60;99.90
6518;DHT22;3292;48.944;9.240;2023-04-03T07:51:12;6.50;99.90
6518;DHT22;3292;48.944;9.240;2023-04-03T07:53:39;6.30;99.90
6518;DHT22;3292;48.944;9.240;2023-04-03T07:56:06;6.50;99.90
6518;DHT22;3292;48.944;9.240;2023-04-03T07:58:34;6.70;99.90
6518;DHT22;3292;48.944;9.240;2023-04-03T08:01:01;7.10;99.90
6518;DHT22;3292;48.944;9.240;2023-04-03T08:03:28;7.30;99.90
6518;DHT22;3292;48.944;9.240;2023-04-03T08:05:55;7.80;99.90
6518;DHT22;3292;48.944;9.240;2023-04-03T08:08:29;7.60;99.90
6518;DHT22;3292;48.944;9.240;2023-04-03T08:10:59;7.40;99.90
6518;DHT22;3292;48.944;9.240;2023-04-03T08:13:26;7.20;99.90
6518;DHT22;3292;48.944;9.240;2023-04-03T08:15:53;7.00;99.90
6518;DHT22;3292;48.944;9.240;2023-04-03T08:18:23;6.80;99.90
6518;DHT22;3292;48.944;9.240;2023-04-03T08:20:52;6.60;99.90
6518;DHT22;3292;48.944;9.240;2023-04-03T08:23:19;6.70;99.90
6518;DHT22;3292;48.944;9.240;2023-04-03T08:25:47;6.70;99.90
6518;DHT22;3292;48.944;9.240;2023-04-03T08:28:14;6.80;99.90
6518;DHT22;3292;48.944;9.240;2023-04-03T08:30:41;6.80;99.90
6518;DHT22;3292;48.944;9.240;2023-04-03T08:33:09;6.70;99.90
6518;DHT22;3292;48.944;9.240;2023-04-03T08:35:39;6.50;99.90
6518;DHT22;3292;48.944;9.240;2023-04-03T08:38:06;6.50;99.90
6518;DHT22;3292;48.944;9.240;2023-04-03T08:40:33;6.90;99.90
6518;DHT22;3292;48.944;9.240;2023-04-03T08:43:12;7.10;99.90
6518;DHT22;3292;48.944;9.240;2023-04-03T08:45:46;7.20;99.90
6518;DHT22;3292;48.944;9.240;2023-04-03T08:48:18;7.00;99.90
6518;DHT22;3292;48.944;9.240;2023-04-03T08:50:50;6.90;99.90
6518;DHT22;3292;48.944;9.240;2023-04-03T08:53:20;6.90;99.90
6518;DHT22;3292;48.944;9.240;2023-04-03T08:55:49;6.90;99.90
6518;DHT22;3292;48.944;9.240;2023-04-03T08:58:19;6.80;99.90
6518;DHT22;3292;48.944;9.240;2023-04-03T09:00:50;7.00;99.90
6518;DHT22;3292;48.944;9.240;2023-04-03T09:03:19;7.10;99.90
6518;DHT22;3292;48.944;9.240;2023-04-03T09:05:49;7.20;99.90
6518;DHT22;3292;48.944;9.240;2023-04-03T09:08:25;7.30;99.90
6518;DHT22;3292;48.944;9.240;2023-04-03T09:11:00;7.50;99.90
6518;DHT22;3292;48.944;9.240;2023-04-03T09:13:35;7.50;99.90
6518;DHT22;3292;48.944;9.240;2023-04-03T09:16:18;7.70;99.90
6518;DHT22;3292;48.944;9.240;2023-04-03T09:18:54;7.70;99.90
6518;DHT22;3292;48.944;9.240;2023-04-03T09:21:27;7.50;99.90
6518;DHT22;3292;48.944;9.240;2023-04-03T09:23:59;7.50;99.90
6518;DHT22;3292;48.944;9.240;2023-04-03T09:26:30;7.80;99.90
6518;DHT22;3292;48.944;9.240;2023-04-03T09:29:02;8.10;99.90
6518;DHT22;3292;48.944;9.240;2023-04-03T09:31:37;8.10;99.90
6518;DHT22;3292;48.944;9.240;2023-04-03T09:34:09;7.90;99.90
6518;DHT22;3292;48.944;9.240;2023-04-03T09:36:43;7.50;99.90
6518;DHT22;3292;48.944;9.240;2023-04-03T09:39:12;7.60;99.90
6518;DHT22;3292;48.944;9.240;2023-04-03T09:41:40;8.00;99.90
6518;DHT22;3292;48.944;9.240;2023-04-03T09:44:21;8.20;99.90
6518;DHT22;3292;48.944;9.240;2023-04-03T09:46:49;8.00;99.90
6518;DHT22;3292;48.944;9.240;2023-04-03T09:49:17;7.90;99.90
6518;DHT22;3292;48.944;9.240;2023-04-03T09:51:44;7.90;99.90
6518;DHT22;3292;48.944;9.240;2023-04-03T09:54:36;7.90;99.90
6518;DHT22;3292;48.944;9.240;2023-04-03T09:57:09;7.70;99.90
6518;DHT22;3292;48.944;9.240;2023-04-03T09:59:43;7.20;99.90
6518;DHT22;3292;48.944;9.240;2023-04-03T10:02:35;7.10;99.90
6518;DHT22;3292;48.944;9.240;2023-04-03T10:05:03;7.20;99.90
6518;DHT22;3292;48.944;9.240;2023-04-03T10:07:35;7.10;99.90
6518;DHT22;3292;48.944;9.240;2023-04-03T10:10:16;7.10;99.90
6518;DHT22;3292;48.944;9.240;2023-04-03T10:12:45;6.90;99.90
6518;DHT22;3292;48.944;9.240;2023-04-03T10:15:15;6.80;99.90
6518;DHT22;3292;48.944;9.240;2023-04-03T10:17:51;6.80;99.90
6518;DHT22;3292;48.944;9.240;2023-04-03T10:20:27;6.80;99.90
6518;DHT22;3292;48.944;9.240;2023-04-03T10:23:05;6.80;99.90
6518;DHT22;3292;48.944;9.240;2023-04-03T10:25:40;7.00;99.90
6518;DHT22;3292;48.944;9.240;2023-04-03T10:28:11;7.20;99.90
6518;DHT22;3292;48.944;9.240;2023-04-03T10:30:47;7.30;99.90
6518;DHT22;3292;48.944;9.240;2023-04-03T10:33:27;7.40;99.90
6518;DHT22;3292;48.944;9.240;2023-04-03T10:36:07;7.50;99.90
6518;DHT22;3292;48.944;9.240;2023-04-03T10:38:43;7.50;99.90
6518;DHT22;3292;48.944;9.240;2023-04-03T10:41:17;7.30;99.90
6518;DHT22;3292;48.944;9.240;2023-04-03T10:43:54;7.20;99.90
6518;DHT22;3292;48.944;9.240;2023-04-03T10:46:28;7.20;99.90
6518;DHT22;3292;48.944;9.240;2023-04-03T10:49:10;7.10;99.90
6518;DHT22;3292;48.944;9.240;2023-04-03T10:51:41;7.20;99.90
6518;DHT22;3292;48.944;9.240;2023-04-03T10:54:13;7.30;99.90
6518;DHT22;3292;48.944;9.240;2023-04-03T10:56:45;7.20;99.90
6518;DHT22;3292;48.944;9.240;2023-04-03T10:59:22;7.20;99.90
6518;DHT22;3292;48.944;9.240;2023-04-03T11:01:55;7.30;99.90
6518;DHT22;3292;48.944;9.240;2023-04-03T11:04:25;7.30;99.90
6518;DHT22;3292;48.944;9.240;2023-04-03T11:06:59;7.30;99.90
6518;DHT22;3292;48.944;9.240;2023-04-03T11:09:28;7.30;99.90
6518;DHT22;3292;48.944;9.240;2023-04-03T11:12:00;7.20;99.90
6518;DHT22;3292;48.944;9.240;2023-04-03T11:14:30;7.00;99.90
6518;DHT22;3292;48.944;9.240;2023-04-03T11:17:05;6.90;99.90
6518;DHT22;3292;48.944;9.240;2023-04-03T11:19:38;6.80;99.90
6518;DHT22;3292;48.944;9.240;2023-04-03T11:22:10;6.80;99.90
6518;DHT22;3292;48.944;9.240;2023-04-03T11:24:43;7.00;99.90
6518;DHT22;3292;48.944;9.240;2023-04-03T11:27:17;7.00;99.90
6518;DHT22;3292;48.944;9.240;2023-04-03T11:29:48;7.10;99.90
6518;DHT22;3292;48.944;9.240;2023-04-03T11:32:35;7.20;99.90
6518;DHT22;3292;48.944;9.240;2023-04-03T11:35:08;7.30;99.90
6518;DHT22;3292;48.944;9.240;2023-04-03T11:37:39;7.30;99.90
6518;DHT22;3292;48.944;9.240;2023-04-03T11:40:16;7.20;99.90
6518;DHT22;3292;48.944;9.240;2023-04-03T11:42:47;7.10;99.90
6518;DHT22;3292;48.944;9.240;2023-04-03T11:45:36;7.10;99.90
6518;DHT22;3292;48.944;9.240;2023-04-03T11:48:06;7.00;99.90
6518;DHT22;3292;48.944;9.240;2023-04-03T11:50:53;7.00;99.90
6518;DHT22;3292;48.944;9.240;2023-04-03T11:53:37;7.20;99.90
6518;DHT22;3292;48.944;9.240;2023-04-03T11:56:29;7.40;99.90
6518;DHT22;3292;48.944;9.240;2023-04-03T11:59:25;7.50;99.90
6518;DHT22;3292;48.944;9.240;2023-04-03T12:01:53;7.60;99.90
6518;DHT22;3292;48.944;9.240;2023-04-03T12:04:23;7.70;99.90
6518;DHT22;3292;48.944;9.240;2023-04-03T12:07:00;7.70;99.90
6518;DHT22;3292;48.944;9.240;2023-04-03T12:09:32;7.70;99.90
6518;DHT22;3292;48.944;9.240;2023-04-03T12:12:01;7.50;99.90
6518;DHT22;3292;48.944;9.240;2023-04-03T12:14:47;7.50;99.90
6518;DHT22;3292;48.944;9.240;2023-04-03T12:17:22;7.40;99.90
6518;DHT22;3292;48.944;9.240;2023-04-03T12:19:51;7.40;99.90
6518;DHT22;3292;48.944;9.240;2023-04-03T12:22:19;7.30;99.90
6518;DHT22;3292;48.944;9.240;2023-04-03T12:24:48;7.30;99.90
6518;DHT22;3292;48.944;9.240;2023-04-03T12:27:34;7.50;99.90
6518;DHT22;3292;48.944;9.240;2023-04-03T12:30:18;7.60;99.90
6518;DHT22;3292;48.944;9.240;2023-04-03T12:33:17;7.60;99.90
6518;DHT22;3292;48.944;9.240;2023-04-03T12:35:57;7.70;99.90
6518;DHT22;3292;48.944;9.240;2023-04-03T12:41:27;7.80;99.90
6518;DHT22;3292;48.944;9.240;2023-04-03T12:44:04;7.80;99.90
6518;DHT22;3292;48.944;9.240;2023-04-03T12:46:37;7.90;99.90
6518;DHT22;3292;48.944;9.240;2023-04-03T12:49:31;7.90;99.90
6518;DHT22;3292;48.944;9.240;2023-04-03T12:52:03;8.00;99.90
6518;DHT22;3292;48.944;9.240;2023-04-03T12:54:33;8.00;99.90
6518;DHT22;3292;48.944;9.240;2023-04-03T12:57:12;7.90;99.90
6518;DHT22;3292;48.944;9.240;2023-04-03T12:59:40;7.70;99.90
6518;DHT22;3292;48.944;9.240;2023-04-03T13:02:19;7.50;99.90
6518;DHT22;3292;48.944;9.240;2023-04-03T13:04:47;7.50;99.90
6518;DHT22;3292;48.944;9.240;2023-04-03T13:07:24;7.50;99.90
6518;DHT22;3292;48.944;9.240;2023-04-03T13:10:03;7.50;99.90
6518;DHT22;3292;48.944;9.240;2023-04-03T13:12:30;7.60;99.90
6518;DHT22;3292;48.944;9.240;2023-04-03T13:14:59;7.70;99.90
6518;DHT22;3292;48.944;9.240;2023-04-03T13:17:27;7.50;99.90
6518;DHT22;3292;48.944;9.240;2023-04-03T13:19:54;7.60;99.90
6518;DHT22;3292;48.944;9.240;2023-04-03T13:22:29;7.60;99.90
6518;DHT22;3292;48.944;9.240;2023-04-03T13:25:06;7.60;99.90
6518;DHT22;3292;48.944;9.240;2023-04-03T13:27:34;7.60;99.90
6518;DHT22;3292;48.944;9.240;2023-04-03T13:30:04;7.40;99.90
6518;DHT22;3292;48.944;9.240;2023-04-03T13:32:32;7.60;99.90
6518;DHT22;3292;48.944;9.240;2023-04-03T13:35:00;7.80;99.90
6518;DHT22;3292;48.944;9.240;2023-04-03T13:37:32;8.00;99.90
6518;DHT22;3292;48.944;9.240;2023-04-03T13:40:08;8.00;99.90
6518;DHT22;3292;48.944;9.240;2023-04-03T13:42:38;8.00;99.90
6518;DHT22;3292;48.944;9.240;2023-04-03T13:45:11;7.90;99.90
6518;DHT22;3292;48.944;9.240;2023-04-03T13:47:44;7.90;99.90
6518;DHT22;3292;48.944;9.240;2023-04-03T13:50:18;7.90;99.90
6518;DHT22;3292;48.944;9.240;2023-04-03T13:52:48;7.90;99.90
6518;DHT22;3292;48.944;9.240;2023-04-03T13:55:21;8.00;99.90
6518;DHT22;3292;48.944;9.240;2023-04-03T13:57:52;8.00;99.90
6518;DHT22;3292;48.944;9.240;2023-04-03T14:00:32;8.00;99.90
6518;DHT22;3292;48.944;9.240;2023-04-03T14:02:59;8.20;99.90
6518;DHT22;3292;48.944;9.240;2023-04-03T14:05:26;8.20;99.90
6518;DHT22;3292;48.944;9.240;2023-04-03T14:07:55;8.40;99.90
6518;DHT22;3292;48.944;9.240;2023-04-03T14:10:22;8.60;99.90
6518;DHT22;3292;48.944;9.240;2023-04-03T14:12:49;8.60;99.90
6518;DHT22;3292;48.944;9.240;2023-04-03T14:15:19;8.60;99.90
6518;DHT22;3292;48.944;9.240;2023-04-03T14:17:49;8.50;99.90
6518;DHT22;3292;48.944;9.240;2023-04-03T14:20:19;8.20;99.90
6518;DHT22;3292;48.944;9.240;2023-04-03T14:22:47;7.90;99.90
6518;DHT22;3292;48.944;9.240;2023-04-03T14:25:17;7.70;99.90
6518;DHT22;3292;48.944;9.240;2023-04-03T14:27:46;7.60;99.90
6518;DHT22;3292;48.944;9.240;2023-04-03T14:30:16;7.60;99.90
6518;DHT22;3292;48.944;9.240;2023-04-03T14:32:46;7.70;99.90
6518;DHT22;3292;48.944;9.240;2023-04-03T14:35:14;7.70;99.90
6518;DHT22;3292;48.944;9.240;2023-04-03T14:37:41;7.70;99.90
6518;DHT22;3292;48.944;9.240;2023-04-03T14:40:11;7.60;99.90
6518;DHT22;3292;48.944;9.240;2023-04-03T14:42:41;7.60;99.90
6518;DHT22;3292;48.944;9.240;2023-04-03T14:45:10;7.60;99.90
6518;DHT22;3292;48.944;9.240;2023-04-03T14:47:41;7.50;99.90
6518;DHT22;3292;48.944;9.240;2023-04-03T14:50:14;7.50;99.90
6518;DHT22;3292;48.944;9.240;2023-04-03T14:52:41;7.40;99.90
6518;DHT22;3292;48.944;9.240;2023-04-03T14:55:09;7.60;99.90
6518;DHT22;3292;48.944;9.240;2023-04-03T14:57:38;7.90;99.90
6518;DHT22;3292;48.944;9.240;2023-04-03T15:00:13;8.10;99.90
6518;DHT22;3292;48.944;9.240;2023-04-03T15:02:40;8.40;99.90
6518;DHT22;3292;48.944;9.240;2023-04-03T15:05:09;8.40;99.90
6518;DHT22;3292;48.944;9.240;2023-04-03T15:07:37;8.20;99.90
6518;DHT22;3292;48.944;9.240;2023-04-03T15:10:16;7.90;99.90
6518;DHT22;3292;48.944;9.240;2023-04-03T15:12:44;7.70;99.90
6518;DHT22;3292;48.944;9.240;2023-04-03T15:15:18;7.60;99.90
6518;DHT22;3292;48.944;9.240;2023-04-03T15:17:47;7.50;99.90
6518;DHT22;3292;48.944;9.240;2023-04-03T15:20:15;7.30;99.90
6518;DHT22;3292;48.944;9.240;2023-04-03T15:22:42;7.00;99.90
6518;DHT22;3292;48.944;9.240;2023-04-03T15:25:10;6.90;99.90
6518;DHT22;3292;48.944;9.240;2023-04-03T15:27:37;6.90;99.90
6518;DHT22;3292;48.944;9.240;2023-04-03T15:30:07;7.10;99.90
6518;DHT22;3292;48.944;9.240;2023-04-03T15:32:35;7.40;99.90
6518;DHT22;3292;48.944;9.240;2023-04-03T15:35:02;7.70;99.90
6518;DHT22;3292;48.944;9.240;2023-04-03T15:37:29;8.00;99.90
6518;DHT22;3292;48.944;9.240;2023-04-03T15:39:56;8.10;99.90
6518;DHT22;3292;48.944;9.240;2023-04-03T15:42:23;8.10;99.90
6518;DHT22;3292;48.944;9.240;2023-04-03T15:44:50;8.00;99.90
6518;DHT22;3292;48.944;9.240;2023-04-03T15:47:17;7.60;99.90
6518;DHT22;3292;48.944;9.240;2023-04-03T15:49:45;7.30;99.90
6518;DHT22;3292;48.944;9.240;2023-04-03T15:52:12;7.10;99.90
6518;DHT22;3292;48.944;9.240;2023-04-03T15:54:39;7.10;99.90
6518;DHT22;3292;48.944;9.240;2023-04-03T15:57:05;7.00;99.90
6518;DHT22;3292;48.944;9.240;2023-04-03T15:59:32;7.00;99.90
6518;DHT22;3292;48.944;9.240;2023-04-03T16:01:59;7.00;99.90
6518;DHT22;3292;48.944;9.240;2023-04-03T16:04:27;7.00;99.90
6518;DHT22;3292;48.944;9.240;2023-04-03T16:06:56;7.00;99.90
6518;DHT22;3292;48.944;9.240;2023-04-03T16:09:23;7.10;99.90
6518;DHT22;3292;48.944;9.240;2023-04-03T16:11:50;7.30;99.90
6518;DHT22;3292;48.944;9.240;2023-04-03T16:14:16;7.50;99.90
6518;DHT22;3292;48.944;9.240;2023-04-03T16:16:43;7.60;99.90
6518;DHT22;3292;48.944;9.240;2023-04-03T16:19:10;7.50;99.90
6518;DHT22;3292;48.944;9.240;2023-04-03T16:21:37;7.40;99.90
6518;DHT22;3292;48.944;9.240;2023-04-03T16:24:06;7.30;99.90
6518;DHT22;3292;48.944;9.240;2023-04-03T16:26:33;7.20;99.90
6518;DHT22;3292;48.944;9.240;2023-04-03T16:29:00;7.20;99.90
6518;DHT22;3292;48.944;9.240;2023-04-03T16:31:27;7.10;99.90
6518;DHT22;3292;48.944;9.240;2023-04-03T16:33:55;7.10;99.90
6518;DHT22;3292;48.944;9.240;2023-04-03T16:36:23;7.00;99.90
6518;DHT22;3292;48.944;9.240;2023-04-03T16:38:50;7.00;99.90